Nord Traveller — 3FWJ2 — position and weather

sailwx.info

Track history (hours):
 
Tides and Currents Weather Stations Pressure Air Temp Water Temp Dewpoint Dewpoint Depression Visibility Wind Speed Wind Dir Waves Ship Positions

Nord Traveller

Last reported at 2018-Jun-22 09:33 UTC. Time now 2018-Jun-22 17:13 UTC.
Position N 37°11' W 076°04'.

Length 190 m; draft 6.3 m.

Type: Cargo ship. MMSI: 370733000.

Date/timePositionNaut miles runAvg speedWind from/ knotsBaromVisibWave heightAir tempDewpointWater temp
2018-Jun-22 09:33N 37°11' W 076°04'0 0.0
2018-Jun-22 09:21N 37°11' W 076°04'0 0.0
2018-Jun-22 09:00N 37°11' W 076°04'0 0.0
2018-Jun-22 08:21N 37°11' W 076°04'0 0.0
2018-Jun-22 08:00N 37°11' W 076°04'0 0.1
2018-Jun-22 07:30N 37°11' W 076°04'0 0.1
2018-Jun-22 06:42N 37°11' W 076°05'0 0.1
2018-Jun-22 06:12N 37°11' W 076°05'0 0.0
2018-Jun-22 05:51N 37°11' W 076°04'0 0.1
2018-Jun-22 05:21N 37°11' W 076°04'0 0.0
2018-Jun-22 04:45N 37°11' W 076°04'0 0.0
2018-Jun-21 12:00N 37°11' W 076°04'0 0.1
2018-Jun-21 09:33N 37°11' W 076°04'0 0.0
2018-Jun-21 09:27N 37°11' W 076°04'0 0.0
2018-Jun-21 06:57N 37°11' W 076°04'0 0.0
2018-Jun-21 06:27N 37°11' W 076°04'0 0.0
2018-Jun-21 01:45N 37°11' W 076°04'0 0.0
2018-Jun-21 00:39N 37°11' W 076°04'0 0.0
2018-Jun-20 23:33N 37°11' W 076°04'0 0.1
2018-Jun-20 23:30N 37°11' W 076°04'0 0.0
2018-Jun-20 14:30N 37°11' W 076°04'0 0.0
2018-Jun-20 13:51N 37°11' W 076°04'0 0.0
2018-Jun-20 13:18N 37°11' W 076°04'0 0.0
2018-Jun-20 12:57N 37°11' W 076°04'0 0.0
2018-Jun-20 12:27N 37°11' W 076°04'0 0.0
2018-Jun-20 11:45N 37°11' W 076°04'0 0.1
2018-Jun-20 11:27N 37°11' W 076°04'0 0.0
2018-Jun-20 11:00N 37°11' W 076°04'0 0.1
2018-Jun-20 09:00N 37°11' W 076°04'0 0.0
2018-Jun-20 07:45N 37°11' W 076°04'0 0.0
2018-Jun-20 07:21N 37°11' W 076°04'0 0.0
2018-Jun-20 06:54N 37°11' W 076°04'0 0.0
2018-Jun-20 01:36N 37°11' W 076°04'0 0.1
2018-Jun-20 01:30N 37°11' W 076°04'0 0.0
2018-Jun-19 13:54N 37°11' W 076°04'0 0.0
2018-Jun-19 13:27N 37°11' W 076°04'0 0.0
2018-Jun-19 12:57N 37°11' W 076°04'0 0.0
2018-Jun-19 12:30N 37°11' W 076°04'0 0.1
2018-Jun-19 12:00N 37°11' W 076°04'0 0.0
2018-Jun-19 11:27N 37°11' W 076°04'0 0.0
2018-Jun-19 10:57N 37°11' W 076°04'0 0.0
2018-Jun-19 10:27N 37°11' W 076°04'0 0.1
2018-Jun-19 09:57N 37°12' W 076°04'0 0.1
2018-Jun-19 09:27N 37°12' W 076°04'0 0.0
2018-Jun-19 07:57N 37°12' W 076°04'0 0.0
2018-Jun-19 07:27N 37°12' W 076°04'0 0.0
2018-Jun-19 07:00N 37°12' W 076°04'0 0.0
2018-Jun-19 06:27N 37°12' W 076°04'0 0.0
2018-Jun-19 05:57N 37°12' W 076°04'0 0.0
2018-Jun-19 05:27N 37°12' W 076°04'0 0.0
2018-Jun-19 04:57N 37°12' W 076°04'0 0.1
2018-Jun-19 01:33N 37°11' W 076°04'0 0.0
2018-Jun-19 00:39N 37°11' W 076°04'0 0.1
2018-Jun-19 00:27N 37°11' W 076°04'0 0.0
2018-Jun-19 00:00N 37°11' W 076°04'0 0.1
2018-Jun-18 23:18N 37°11' W 076°04'0 0.0
2018-Jun-18 11:39N 37°11' W 076°04'0 0.0
2018-Jun-18 09:51N 37°11' W 076°04'0 0.0
2018-Jun-18 09:21N 37°11' W 076°04'0 0.0
2018-Jun-18 08:51N 37°11' W 076°04'0 0.2
2018-Jun-18 08:24N 37°12' W 076°04'0 0.0
2018-Jun-18 08:00N 37°12' W 076°04'0 0.1
2018-Jun-18 07:12N 37°12' W 076°04'0 0.0
2018-Jun-18 06:57N 37°12' W 076°04'0 0.0
2018-Jun-18 06:30N 37°12' W 076°04'0 0.0
2018-Jun-18 05:58N 37°12' W 076°04'1 1.2
2018-Jun-18 05:30N 37°12' W 076°05'611.1
2018-Jun-18 05:00N 37°07' W 076°07'815.4
2018-Jun-18 04:30N 36°60' W 076°02'712.6
2018-Jun-18 03:58N 36°56' W 075°56'4 7.8
2018-Jun-18 03:30N 36°53' W 075°52'3 6.1
2018-Jun-18 03:00N 36°52' W 075°49'3 6.6
2018-Jun-18 02:30N 36°50' W 075°45'4 8.4
2018-Jun-18 01:59N 36°51' W 075°40'0 0.7
2018-Jun-18 01:29N 36°51' W 075°40'0 0.7
2018-Jun-18 00:59N 36°51' W 075°40'1 2.3
2018-Jun-18 00:30N 36°50' W 075°40'5 8.9
2018-Jun-17 23:58N 36°45' W 075°37'1513.3
2018-Jun-17 22:50N 36°37' W 075°21'413.3
2018-Jun-17 22:30N 36°35' W 075°16'713.2
2018-Jun-17 21:57N 36°32' W 075°08'  
Track history (hours):
 
Tides and Currents Weather Stations Pressure Air Temp Water Temp Dewpoint Dewpoint Depression Visibility Wind Speed Wind Dir Waves Ship Positions

Nord Traveller

Last reported at 2018-Jun-22 09:33 UTC. Time now 2018-Jun-22 17:13 UTC.
Position N 37°11' W 076°04'.

Length 190 m; draft 6.3 m.

Type: Cargo ship. MMSI: 370733000.

Date/timePositionNaut miles runAvg speedWind from/ knotsBaromVisibWave heightAir tempDewpointWater temp
2018-Jun-22 09:33N 37°11' W 076°04'0 0.0
2018-Jun-22 09:21N 37°11' W 076°04'0 0.0
2018-Jun-22 09:00N 37°11' W 076°04'0 0.0
2018-Jun-22 08:21N 37°11' W 076°04'0 0.0
2018-Jun-22 08:00N 37°11' W 076°04'0 0.1
2018-Jun-22 07:30N 37°11' W 076°04'0 0.1
2018-Jun-22 06:42N 37°11' W 076°05'0 0.1
2018-Jun-22 06:12N 37°11' W 076°05'0 0.0
2018-Jun-22 05:51N 37°11' W 076°04'0 0.1
2018-Jun-22 05:21N 37°11' W 076°04'0 0.0
2018-Jun-22 04:45N 37°11' W 076°04'0 0.0
2018-Jun-21 12:00N 37°11' W 076°04'0 0.1
2018-Jun-21 09:33N 37°11' W 076°04'0 0.0
2018-Jun-21 09:27N 37°11' W 076°04'0 0.0
2018-Jun-21 06:57N 37°11' W 076°04'0 0.0
2018-Jun-21 06:27N 37°11' W 076°04'0 0.0
2018-Jun-21 01:45N 37°11' W 076°04'0 0.0
2018-Jun-21 00:39N 37°11' W 076°04'0 0.0
2018-Jun-20 23:33N 37°11' W 076°04'0 0.1
2018-Jun-20 23:30N 37°11' W 076°04'0 0.0
2018-Jun-20 14:30N 37°11' W 076°04'0 0.0
2018-Jun-20 13:51N 37°11' W 076°04'0 0.0
2018-Jun-20 13:18N 37°11' W 076°04'0 0.0
2018-Jun-20 12:57N 37°11' W 076°04'0 0.0
2018-Jun-20 12:27N 37°11' W 076°04'0 0.0
2018-Jun-20 11:45N 37°11' W 076°04'0 0.1
2018-Jun-20 11:27N 37°11' W 076°04'0 0.0
2018-Jun-20 11:00N 37°11' W 076°04'0 0.1
2018-Jun-20 09:00N 37°11' W 076°04'0 0.0
2018-Jun-20 07:45N 37°11' W 076°04'0 0.0
2018-Jun-20 07:21N 37°11' W 076°04'0 0.0
2018-Jun-20 06:54N 37°11' W 076°04'0 0.0
2018-Jun-20 01:36N 37°11' W 076°04'0 0.1
2018-Jun-20 01:30N 37°11' W 076°04'0 0.0
2018-Jun-19 13:54N 37°11' W 076°04'0 0.0
2018-Jun-19 13:27N 37°11' W 076°04'0 0.0
2018-Jun-19 12:57N 37°11' W 076°04'0 0.0
2018-Jun-19 12:30N 37°11' W 076°04'0 0.1
2018-Jun-19 12:00N 37°11' W 076°04'0 0.0
2018-Jun-19 11:27N 37°11' W 076°04'0 0.0
2018-Jun-19 10:57N 37°11' W 076°04'0 0.0
2018-Jun-19 10:27N 37°11' W 076°04'0 0.1
2018-Jun-19 09:57N 37°12' W 076°04'0 0.1
2018-Jun-19 09:27N 37°12' W 076°04'0 0.0
2018-Jun-19 07:57N 37°12' W 076°04'0 0.0
2018-Jun-19 07:27N 37°12' W 076°04'0 0.0
2018-Jun-19 07:00N 37°12' W 076°04'0 0.0
2018-Jun-19 06:27N 37°12' W 076°04'0 0.0
2018-Jun-19 05:57N 37°12' W 076°04'0 0.0
2018-Jun-19 05:27N 37°12' W 076°04'0 0.0
2018-Jun-19 04:57N 37°12' W 076°04'0 0.1
2018-Jun-19 01:33N 37°11' W 076°04'0 0.0
2018-Jun-19 00:39N 37°11' W 076°04'0 0.1
2018-Jun-19 00:27N 37°11' W 076°04'0 0.0
2018-Jun-19 00:00N 37°11' W 076°04'0 0.1
2018-Jun-18 23:18N 37°11' W 076°04'0 0.0
2018-Jun-18 11:39N 37°11' W 076°04'0 0.0
2018-Jun-18 09:51N 37°11' W 076°04'0 0.0
2018-Jun-18 09:21N 37°11' W 076°04'0 0.0
2018-Jun-18 08:51N 37°11' W 076°04'0 0.2
2018-Jun-18 08:24N 37°12' W 076°04'0 0.0
2018-Jun-18 08:00N 37°12' W 076°04'0 0.1
2018-Jun-18 07:12N 37°12' W 076°04'0 0.0
2018-Jun-18 06:57N 37°12' W 076°04'0 0.0
2018-Jun-18 06:30N 37°12' W 076°04'0 0.0
2018-Jun-18 05:58N 37°12' W 076°04'1 1.2
2018-Jun-18 05:30N 37°12' W 076°05'611.1
2018-Jun-18 05:00N 37°07' W 076°07'815.4
2018-Jun-18 04:30N 36°60' W 076°02'712.6
2018-Jun-18 03:58N 36°56' W 075°56'4 7.8
2018-Jun-18 03:30N 36°53' W 075°52'3 6.1
2018-Jun-18 03:00N 36°52' W 075°49'3 6.6
2018-Jun-18 02:30N 36°50' W 075°45'4 8.4
2018-Jun-18 01:59N 36°51' W 075°40'0 0.7
2018-Jun-18 01:29N 36°51' W 075°40'0 0.7
2018-Jun-18 00:59N 36°51' W 075°40'1 2.3
2018-Jun-18 00:30N 36°50' W 075°40'5 8.9
2018-Jun-17 23:58N 36°45' W 075°37'1513.3
2018-Jun-17 22:50N 36°37' W 075°21'413.3
2018-Jun-17 22:30N 36°35' W 075°16'713.2
2018-Jun-17 21:57N 36°32' W 075°08'  

Dump ship's entire track history